sensor_id;sensor_type;location;lat;lon;timestamp;pressure;altitude;pressure_sealevel;temperature;humidity
39265;BME280;42646;51.910;7.724;2024-02-21T00:00:05;101594.97;;;8.60;100.00
39265;BME280;42646;51.910;7.724;2024-02-21T00:02:33;101581.06;;;8.56;100.00
39265;BME280;42646;51.910;7.724;2024-02-21T00:05:01;101582.56;;;8.61;100.00
39265;BME280;42646;51.910;7.724;2024-02-21T00:07:29;101583.50;;;8.60;100.00
39265;BME280;42646;51.910;7.724;2024-02-21T00:09:57;101579.06;;;8.60;100.00
39265;BME280;42646;51.910;7.724;2024-02-21T00:12:25;101578.00;;;8.63;100.00
39265;BME280;42646;51.910;7.724;2024-02-21T00:14:54;101575.34;;;8.63;100.00
39265;BME280;42646;51.910;7.724;2024-02-21T00:17:22;101573.53;;;8.63;100.00
39265;BME280;42646;51.910;7.724;2024-02-21T00:19:49;101556.78;;;8.63;100.00
39265;BME280;42646;51.910;7.724;2024-02-21T00:22:17;101550.50;;;8.64;100.00
39265;BME280;42646;51.910;7.724;2024-02-21T00:24:45;101545.03;;;8.67;100.00
39265;BME280;42646;51.910;7.724;2024-02-21T00:27:13;101545.88;;;8.67;100.00
39265;BME280;42646;51.910;7.724;2024-02-21T00:29:40;101546.28;;;8.61;100.00
39265;BME280;42646;51.910;7.724;2024-02-21T00:32:09;101538.41;;;8.60;100.00
39265;BME280;42646;51.910;7.724;2024-02-21T00:34:37;101543.63;;;8.61;100.00
39265;BME280;42646;51.910;7.724;2024-02-21T00:37:05;101536.63;;;8.60;100.00
39265;BME280;42646;51.910;7.724;2024-02-21T00:39:33;101531.94;;;8.64;100.00
39265;BME280;42646;51.910;7.724;2024-02-21T00:42:01;101522.41;;;8.61;100.00
39265;BME280;42646;51.910;7.724;2024-02-21T00:44:28;101523.38;;;8.60;100.00
39265;BME280;42646;51.910;7.724;2024-02-21T00:46:56;101524.41;;;8.57;100.00
39265;BME280;42646;51.910;7.724;2024-02-21T00:49:25;101512.94;;;8.57;100.00
39265;BME280;42646;51.910;7.724;2024-02-21T00:51:53;101506.69;;;8.58;100.00
39265;BME280;42646;51.910;7.724;2024-02-21T00:54:21;101505.84;;;8.57;100.00
39265;BME280;42646;51.910;7.724;2024-02-21T00:56:49;101512.94;;;8.57;100.00
39265;BME280;42646;51.910;7.724;2024-02-21T00:59:18;101511.03;;;8.59;100.00
39265;BME280;42646;51.910;7.724;2024-02-21T01:01:45;101508.31;;;8.61;100.00
39265;BME280;42646;51.910;7.724;2024-02-21T01:04:13;101508.59;;;8.56;100.00
39265;BME280;42646;51.910;7.724;2024-02-21T01:06:42;101512.09;;;8.56;100.00
39265;BME280;42646;51.910;7.724;2024-02-21T01:09:10;101507.34;;;8.62;100.00
39265;BME280;42646;51.910;7.724;2024-02-21T01:11:38;101504.16;;;8.56;100.00
39265;BME280;42646;51.910;7.724;2024-02-21T01:14:06;101503.94;;;8.60;100.00
39265;BME280;42646;51.910;7.724;2024-02-21T01:16:34;101501.50;;;8.56;100.00
39265;BME280;42646;51.910;7.724;2024-02-21T01:19:02;101506.69;;;8.58;100.00
39265;BME280;42646;51.910;7.724;2024-02-21T01:21:30;101504.69;;;8.62;100.00
39265;BME280;42646;51.910;7.724;2024-02-21T01:23:59;101503.00;;;8.61;100.00
39265;BME280;42646;51.910;7.724;2024-02-21T01:26:26;101504.56;;;8.63;100.00
39265;BME280;42646;51.910;7.724;2024-02-21T01:28:54;101493.97;;;8.63;100.00
39265;BME280;42646;51.910;7.724;2024-02-21T01:31:22;101489.50;;;8.64;100.00
39265;BME280;42646;51.910;7.724;2024-02-21T01:33:50;101487.69;;;8.64;100.00
39265;BME280;42646;51.910;7.724;2024-02-21T01:36:17;101478.06;;;8.63;100.00
39265;BME280;42646;51.910;7.724;2024-02-21T01:38:45;101479.66;;;8.66;100.00
39265;BME280;42646;51.910;7.724;2024-02-21T01:41:14;101479.75;;;8.64;100.00
39265;BME280;42646;51.910;7.724;2024-02-21T01:43:42;101476.06;;;8.67;100.00
39265;BME280;42646;51.910;7.724;2024-02-21T01:46:11;101465.44;;;8.67;100.00
39265;BME280;42646;51.910;7.724;2024-02-21T01:48:39;101462.88;;;8.65;100.00
39265;BME280;42646;51.910;7.724;2024-02-21T01:51:07;101463.63;;;8.67;100.00
39265;BME280;42646;51.910;7.724;2024-02-21T02:14:29;101420.66;;;8.62;100.00
39265;BME280;42646;51.910;7.724;2024-02-21T02:17:46;101423.09;;;8.65;100.00
39265;BME280;42646;51.910;7.724;2024-02-21T02:21:05;101424.03;;;8.64;100.00
39265;BME280;42646;51.910;7.724;2024-02-21T02:24:26;101413.25;;;8.67;100.00
39265;BME280;42646;51.910;7.724;2024-02-21T02:58:24;101328.47;;;8.66;100.00
39265;BME280;42646;51.910;7.724;2024-02-21T03:00:50;101326.44;;;8.69;100.00
39265;BME280;42646;51.910;7.724;2024-02-21T03:03:17;101324.09;;;8.65;100.00
39265;BME280;42646;51.910;7.724;2024-02-21T04:08:16;101351.25;;;8.68;100.00
39265;BME280;42646;51.910;7.724;2024-02-21T04:10:44;101345.00;;;8.69;100.00
39265;BME280;42646;51.910;7.724;2024-02-21T04:13:12;101350.19;;;8.71;100.00
39265;BME280;42646;51.910;7.724;2024-02-21T04:15:40;101350.31;;;8.69;100.00
39265;BME280;42646;51.910;7.724;2024-02-21T04:18:08;101354.56;;;8.72;100.00
39265;BME280;42646;51.910;7.724;2024-02-21T04:20:35;101353.69;;;8.71;100.00
39265;BME280;42646;51.910;7.724;2024-02-21T04:23:03;101350.50;;;8.79;100.00
39265;BME280;42646;51.910;7.724;2024-02-21T04:25:32;101347.31;;;8.74;100.00
39265;BME280;42646;51.910;7.724;2024-02-21T04:28:00;101354.22;;;8.76;100.00
39265;BME280;42646;51.910;7.724;2024-02-21T04:30:28;101346.38;;;8.75;100.00
39265;BME280;42646;51.910;7.724;2024-02-21T04:32:55;101344.44;;;8.77;100.00
39265;BME280;42646;51.910;7.724;2024-02-21T04:35:23;101345.94;;;8.81;100.00
39265;BME280;42646;51.910;7.724;2024-02-21T04:37:51;101346.25;;;8.76;100.00
39265;BME280;42646;51.910;7.724;2024-02-21T04:40:18;101345.28;;;8.77;100.00
39265;BME280;42646;51.910;7.724;2024-02-21T04:42:47;101347.22;;;8.75;100.00
39265;BME280;42646;51.910;7.724;2024-02-21T04:45:15;101356.84;;;8.76;100.00
39265;BME280;42646;51.910;7.724;2024-02-21T04:47:44;101359.31;;;8.79;100.00
39265;BME280;42646;51.910;7.724;2024-02-21T04:50:12;101357.63;;;8.78;100.00
39265;BME280;42646;51.910;7.724;2024-02-21T04:52:40;101358.66;;;8.76;100.00
39265;BME280;42646;51.910;7.724;2024-02-21T04:55:08;101358.56;;;8.77;100.00
39265;BME280;42646;51.910;7.724;2024-02-21T04:57:35;101350.19;;;8.83;100.00
39265;BME280;42646;51.910;7.724;2024-02-21T05:00:06;101347.00;;;8.78;100.00
39265;BME280;42646;51.910;7.724;2024-02-21T05:02:34;101327.59;;;8.78;100.00
39265;BME280;42646;51.910;7.724;2024-02-21T05:05:01;101336.28;;;8.80;100.00
39265;BME280;42646;51.910;7.724;2024-02-21T05:07:29;101344.00;;;8.83;100.00
39265;BME280;42646;51.910;7.724;2024-02-21T05:09:57;101340.63;;;8.81;100.00
39265;BME280;42646;51.910;7.724;2024-02-21T05:12:25;101328.31;;;8.80;100.00
39265;BME280;42646;51.910;7.724;2024-02-21T05:14:52;101330.00;;;8.81;100.00
39265;BME280;42646;51.910;7.724;2024-02-21T05:17:21;101323.00;;;8.80;100.00
39265;BME280;42646;51.910;7.724;2024-02-21T05:19:49;101321.09;;;8.82;100.00
39265;BME280;42646;51.910;7.724;2024-02-21T05:22:17;101304.00;;;8.86;100.00
39265;BME280;42646;51.910;7.724;2024-02-21T05:24:45;101296.16;;;8.85;100.00
39265;BME280;42646;51.910;7.724;2024-02-21T05:27:12;101295.41;;;8.82;100.00
39265;BME280;42646;51.910;7.724;2024-02-21T05:29:40;101289.25;;;8.82;100.00
39265;BME280;42646;51.910;7.724;2024-02-21T05:32:08;101286.72;;;8.80;100.00
39265;BME280;42646;51.910;7.724;2024-02-21T05:34:37;101286.50;;;8.83;100.00
39265;BME280;42646;51.910;7.724;2024-02-21T05:37:05;101278.44;;;8.85;100.00
39265;BME280;42646;51.910;7.724;2024-02-21T05:39:33;101280.31;;;8.83;100.00
39265;BME280;42646;51.910;7.724;2024-02-21T05:42:00;101273.34;;;8.82;100.00
39265;BME280;42646;51.910;7.724;2024-02-21T05:44:28;101276.94;;;8.81;100.00
39265;BME280;42646;51.910;7.724;2024-02-21T05:46:56;101280.31;;;8.83;100.00
39265;BME280;42646;51.910;7.724;2024-02-21T05:49:23;101281.19;;;8.83;100.00
39265;BME280;42646;51.910;7.724;2024-02-21T05:51:53;101274.28;;;8.81;100.00
39265;BME280;42646;51.910;7.724;2024-02-21T05:54:20;101275.25;;;8.80;100.00
39265;BME280;42646;51.910;7.724;2024-02-21T05:56:48;101279.59;;;8.81;100.00
39265;BME280;42646;51.910;7.724;2024-02-21T05:59:15;101285.88;;;8.80;100.00
39265;BME280;42646;51.910;7.724;2024-02-21T06:01:43;101274.28;;;8.81;100.00
39265;BME280;42646;51.910;7.724;2024-02-21T06:04:11;101275.91;;;8.83;100.00
39265;BME280;42646;51.910;7.724;2024-02-21T06:06:39;101277.06;;;8.79;100.00
39265;BME280;42646;51.910;7.724;2024-02-21T06:09:08;101258.72;;;8.76;100.00
39265;BME280;42646;51.910;7.724;2024-02-21T06:11:36;101251.50;;;8.78;100.00
39265;BME280;42646;51.910;7.724;2024-02-21T06:14:04;101250.66;;;8.78;100.00
39265;BME280;42646;51.910;7.724;2024-02-21T06:16:32;101252.69;;;8.74;100.00
39265;BME280;42646;51.910;7.724;2024-02-21T06:19:00;101251.50;;;8.78;100.00
39265;BME280;42646;51.910;7.724;2024-02-21T06:21:29;101256.69;;;8.80;100.00
39265;BME280;42646;51.910;7.724;2024-02-21T06:23:56;101249.44;;;8.82;100.00
39265;BME280;42646;51.910;7.724;2024-02-21T06:26:25;101242.47;;;8.81;100.00
39265;BME280;42646;51.910;7.724;2024-02-21T06:28:53;101242.91;;;8.75;100.00
39265;BME280;42646;51.910;7.724;2024-02-21T06:31:21;101231.56;;;8.73;100.00
39265;BME280;42646;51.910;7.724;2024-02-21T06:33:48;101235.91;;;8.74;100.00
39265;BME280;42646;51.910;7.724;2024-02-21T06:36:16;101239.63;;;8.71;100.00
39265;BME280;42646;51.910;7.724;2024-02-21T06:38:44;101232.41;;;8.73;100.00
39265;BME280;42646;51.910;7.724;2024-02-21T06:41:15;101226.16;;;8.74;100.00
39265;BME280;42646;51.910;7.724;2024-02-21T06:43:44;101224.34;;;8.75;100.00
39265;BME280;42646;51.910;7.724;2024-02-21T06:46:12;101220.84;;;8.74;100.00
39265;BME280;42646;51.910;7.724;2024-02-21T06:48:40;101209.38;;;8.74;100.00
39265;BME280;42646;51.910;7.724;2024-02-21T06:51:13;101212.03;;;8.74;100.00
39265;BME280;42646;51.910;7.724;2024-02-21T06:53:40;101206.63;;;8.75;100.00
39265;BME280;42646;51.910;7.724;2024-02-21T06:56:08;101207.69;;;8.73;100.00
39265;BME280;42646;51.910;7.724;2024-02-21T06:58:36;101206.84;;;8.72;100.00
39265;BME280;42646;51.910;7.724;2024-02-21T07:01:05;101218.06;;;8.76;100.00
39265;BME280;42646;51.910;7.724;2024-02-21T07:03:32;101210.97;;;8.76;100.00
39265;BME280;42646;51.910;7.724;2024-02-21T07:06:01;101214.56;;;8.75;100.00
39265;BME280;42646;51.910;7.724;2024-02-21T07:08:29;101206.41;;;8.78;100.00
39265;BME280;42646;51.910;7.724;2024-02-21T07:10:57;101220.41;;;8.80;100.00
39265;BME280;42646;51.910;7.724;2024-02-21T07:13:25;101217.75;;;8.80;100.00
39265;BME280;42646;51.910;7.724;2024-02-21T07:15:53;101210.97;;;8.76;100.00
39265;BME280;42646;51.910;7.724;2024-02-21T07:18:22;101213.53;;;8.78;100.00
39265;BME280;42646;51.910;7.724;2024-02-21T07:20:52;101215.09;;;8.80;100.00
39265;BME280;42646;51.910;7.724;2024-02-21T07:23:19;101209.78;;;8.80;100.00
39265;BME280;42646;51.910;7.724;2024-02-21T07:25:47;101215.22;;;8.79;100.00
39265;BME280;42646;51.910;7.724;2024-02-21T07:28:15;101215.81;;;8.82;100.00
39265;BME280;42646;51.910;7.724;2024-02-21T07:30:43;101216.78;;;8.81;100.00
39265;BME280;42646;51.910;7.724;2024-02-21T07:33:11;101215.59;;;8.86;100.00
39265;BME280;42646;51.910;7.724;2024-02-21T07:35:40;101215.59;;;8.86;100.00
39265;BME280;42646;51.910;7.724;2024-02-21T07:38:11;101211.97;;;8.87;100.00
39265;BME280;42646;51.910;7.724;2024-02-21T07:40:39;101213.44;;;8.91;100.00
39265;BME280;42646;51.910;7.724;2024-02-21T07:43:07;101201.88;;;8.92;100.00
39265;BME280;42646;51.910;7.724;2024-02-21T07:45:35;101209.13;;;8.90;100.00
39265;BME280;42646;51.910;7.724;2024-02-21T07:48:03;101202.94;;;8.89;100.00
39265;BME280;42646;51.910;7.724;2024-02-21T07:50:31;101210.03;;;8.89;100.00
39265;BME280;42646;51.910;7.724;2024-02-21T07:53:00;101197.28;;;8.94;100.00
39265;BME280;42646;51.910;7.724;2024-02-21T07:55:28;101199.22;;;8.92;100.00
39265;BME280;42646;51.910;7.724;2024-02-21T07:57:56;101198.88;;;8.96;100.00
39265;BME280;42646;51.910;7.724;2024-02-21T08:00:24;101194.63;;;8.94;100.00
39265;BME280;42646;51.910;7.724;2024-02-21T08:02:52;101190.09;;;8.96;100.00
39265;BME280;42646;51.910;7.724;2024-02-21T08:05:19;101187.31;;;8.97;100.00
39265;BME280;42646;51.910;7.724;2024-02-21T08:07:48;101188.53;;;9.04;100.00
39265;BME280;42646;51.910;7.724;2024-02-21T08:10:17;101183.94;;;9.06;100.00
39265;BME280;42646;51.910;7.724;2024-02-21T08:12:45;101179.47;;;9.07;100.00
39265;BME280;42646;51.910;7.724;2024-02-21T08:15:13;101176.59;;;9.10;100.00
39265;BME280;42646;51.910;7.724;2024-02-21T08:17:42;101178.16;;;9.13;100.00
39265;BME280;42646;51.910;7.724;2024-02-21T08:20:10;101190.88;;;9.20;100.00
39265;BME280;42646;51.910;7.724;2024-02-21T08:22:38;101172.19;;;9.22;100.00
39265;BME280;42646;51.910;7.724;2024-02-21T08:25:06;101172.81;;;9.25;100.00
39265;BME280;42646;51.910;7.724;2024-02-21T08:27:37;101168.56;;;9.23;100.00
39265;BME280;42646;51.910;7.724;2024-02-21T08:30:06;101161.94;;;9.28;100.00
39265;BME280;42646;51.910;7.724;2024-02-21T08:32:34;101159.91;;;9.32;100.00
39265;BME280;42646;51.910;7.724;2024-02-21T08:35:02;101160.13;;;9.29;100.00
39265;BME280;42646;51.910;7.724;2024-02-21T08:37:31;101160.88;;;9.31;100.00
39265;BME280;42646;51.910;7.724;2024-02-21T08:39:59;101146.38;;;9.35;100.00
39265;BME280;42646;51.910;7.724;2024-02-21T08:42:31;101139.50;;;9.32;100.00
39265;BME280;42646;51.910;7.724;2024-02-21T08:45:01;101136.84;;;9.32;100.00
39265;BME280;42646;51.910;7.724;2024-02-21T08:47:29;101139.16;;;9.37;100.00
39265;BME280;42646;51.910;7.724;2024-02-21T08:49:57;101139.03;;;9.39;100.00
39265;BME280;42646;51.910;7.724;2024-02-21T08:52:28;101138.69;;;9.43;100.00
39265;BME280;42646;51.910;7.724;2024-02-21T08:54:55;101147.50;;;9.44;100.00
39265;BME280;42646;51.910;7.724;2024-02-21T08:57:23;101135.63;;;9.48;100.00
39265;BME280;42646;51.910;7.724;2024-02-21T08:59:51;101139.25;;;9.47;100.00
39265;BME280;42646;51.910;7.724;2024-02-21T09:02:20;101125.75;;;9.50;100.00
39265;BME280;42646;51.910;7.724;2024-02-21T09:04:48;101123.81;;;9.52;100.00
39265;BME280;42646;51.910;7.724;2024-02-21T09:07:16;101131.19;;;9.59;100.00
39265;BME280;42646;51.910;7.724;2024-02-21T09:09:44;101130.47;;;9.57;100.00
39265;BME280;42646;51.910;7.724;2024-02-21T09:12:11;101129.00;;;9.53;100.00
39265;BME280;42646;51.910;7.724;2024-02-21T09:14:42;101122.00;;;9.63;100.00
39265;BME280;42646;51.910;7.724;2024-02-21T09:17:09;101125.03;;;9.59;100.00
39265;BME280;42646;51.910;7.724;2024-02-21T09:19:40;101122.84;;;9.64;100.00
39265;BME280;42646;51.910;7.724;2024-02-21T09:22:08;101105.72;;;9.68;100.00
39265;BME280;42646;51.910;7.724;2024-02-21T09:24:36;101104.38;;;9.74;99.44
39265;BME280;42646;51.910;7.724;2024-02-21T09:27:04;101094.97;;;9.70;99.86
39265;BME280;42646;51.910;7.724;2024-02-21T09:29:32;101105.09;;;9.76;99.18
39265;BME280;42646;51.910;7.724;2024-02-21T09:32:00;101092.53;;;9.78;99.81
39265;BME280;42646;51.910;7.724;2024-02-21T09:34:29;101093.84;;;9.83;99.43
39265;BME280;42646;51.910;7.724;2024-02-21T09:36:58;101089.28;;;9.85;99.08
39265;BME280;42646;51.910;7.724;2024-02-21T09:39:26;101082.88;;;9.88;98.94
39265;BME280;42646;51.910;7.724;2024-02-21T09:41:59;101075.72;;;9.88;98.59
39265;BME280;42646;51.910;7.724;2024-02-21T09:44:32;101072.56;;;9.95;98.21
39265;BME280;42646;51.910;7.724;2024-02-21T09:47:03;101070.53;;;9.98;97.06
39265;BME280;42646;51.910;7.724;2024-02-21T09:49:32;101067.88;;;9.98;96.56
39265;BME280;42646;51.910;7.724;2024-02-21T09:52:04;101069.81;;;9.96;96.55
39265;BME280;42646;51.910;7.724;2024-02-21T09:54:33;101071.50;;;9.97;97.79
39265;BME280;42646;51.910;7.724;2024-02-21T09:57:00;101077.88;;;10.06;97.10
39265;BME280;42646;51.910;7.724;2024-02-21T09:59:40;101076.91;;;10.07;96.68
39265;BME280;42646;51.910;7.724;2024-02-21T10:03:10;101085.28;;;10.02;96.90
39265;BME280;42646;51.910;7.724;2024-02-21T10:05:38;101082.13;;;10.08;96.87
39265;BME280;42646;51.910;7.724;2024-02-21T10:08:13;101076.41;;;10.13;94.23
39265;BME280;42646;51.910;7.724;2024-02-21T10:10:42;101076.66;;;10.10;92.77
39265;BME280;42646;51.910;7.724;2024-02-21T10:28:03;101056.66;;;9.72;95.32
39265;BME280;42646;51.910;7.724;2024-02-21T10:30:31;101060.16;;;9.84;95.11
39265;BME280;42646;51.910;7.724;2024-02-21T10:32:58;101048.94;;;9.92;94.71
39265;BME280;42646;51.910;7.724;2024-02-21T10:35:27;101040.44;;;9.98;94.40
39265;BME280;42646;51.910;7.724;2024-02-21T10:37:56;101039.09;;;10.03;93.63
39265;BME280;42646;51.910;7.724;2024-02-21T10:40:24;101035.47;;;10.04;93.10
39265;BME280;42646;51.910;7.724;2024-02-21T10:42:56;101036.03;;;10.08;93.35
39265;BME280;42646;51.910;7.724;2024-02-21T10:45:31;101027.00;;;10.10;93.26
39265;BME280;42646;51.910;7.724;2024-02-21T10:48:08;101024.94;;;10.14;93.78
39265;BME280;42646;51.910;7.724;2024-02-21T10:50:50;101023.97;;;10.15;94.24
39265;BME280;42646;51.910;7.724;2024-02-21T10:53:29;101016.97;;;10.14;95.22
39265;BME280;42646;51.910;7.724;2024-02-21T10:56:21;101009.31;;;10.21;95.40
39265;BME280;42646;51.910;7.724;2024-02-21T10:58:50;101006.28;;;10.25;95.55
39265;BME280;42646;51.910;7.724;2024-02-21T11:01:20;101004.38;;;10.27;95.71
39265;BME280;42646;51.910;7.724;2024-02-21T11:03:51;100996.38;;;10.27;94.86
39265;BME280;42646;51.910;7.724;2024-02-21T11:06:21;100998.78;;;10.19;95.52
39265;BME280;42646;51.910;7.724;2024-02-21T11:09:00;100988.75;;;10.23;95.53
39265;BME280;42646;51.910;7.724;2024-02-21T11:11:29;100988.50;;;10.26;95.13
39265;BME280;42646;51.910;7.724;2024-02-21T11:14:06;100985.50;;;10.19;96.28
39265;BME280;42646;51.910;7.724;2024-02-21T11:16:40;100977.41;;;10.21;96.71
39265;BME280;42646;51.910;7.724;2024-02-21T11:19:08;100966.78;;;10.21;96.88
39265;BME280;42646;51.910;7.724;2024-02-21T11:21:37;100967.03;;;10.17;97.43
39265;BME280;42646;51.910;7.724;2024-02-21T11:24:06;100946.72;;;10.16;97.63
39265;BME280;42646;51.910;7.724;2024-02-21T11:26:33;100948.69;;;10.14;97.42
39265;BME280;42646;51.910;7.724;2024-02-21T11:29:04;100940.09;;;10.11;97.96
39265;BME280;42646;51.910;7.724;2024-02-21T11:31:40;100932.00;;;10.12;97.59
39265;BME280;42646;51.910;7.724;2024-02-21T11:34:09;100926.22;;;10.07;97.59
39265;BME280;42646;51.910;7.724;2024-02-21T11:36:46;100930.69;;;10.07;97.52
39265;BME280;42646;51.910;7.724;2024-02-21T11:39:19;100920.34;;;10.04;97.83
39265;BME280;42646;51.910;7.724;2024-02-21T11:41:48;100916.94;;;10.02;97.68
39265;BME280;42646;51.910;7.724;2024-02-21T11:44:15;100916.09;;;10.01;98.17
39265;BME280;42646;51.910;7.724;2024-02-21T11:46:44;100913.78;;;10.08;96.89
39265;BME280;42646;51.910;7.724;2024-02-21T11:49:13;100916.00;;;10.03;97.13
39265;BME280;42646;51.910;7.724;2024-02-21T11:51:41;100912.50;;;10.02;97.74
39265;BME280;42646;51.910;7.724;2024-02-21T11:54:10;100908.53;;;9.97;98.22
39265;BME280;42646;51.910;7.724;2024-02-21T11:56:39;100888.97;;;9.98;98.61
39265;BME280;42646;51.910;7.724;2024-02-21T11:59:08;100874.56;;;10.00;98.05
39265;BME280;42646;51.910;7.724;2024-02-21T12:01:36;100866.84;;;9.97;98.23
39265;BME280;42646;51.910;7.724;2024-02-21T12:04:05;100852.31;;;10.01;98.33
39265;BME280;42646;51.910;7.724;2024-02-21T12:06:33;100851.38;;;10.02;98.82
39265;BME280;42646;51.910;7.724;2024-02-21T12:09:01;100825.50;;;10.04;98.30
39265;BME280;42646;51.910;7.724;2024-02-21T12:11:29;100825.94;;;10.09;98.05
39265;BME280;42646;51.910;7.724;2024-02-21T12:14:00;100825.34;;;10.06;97.16
39265;BME280;42646;51.910;7.724;2024-02-21T12:16:30;100825.50;;;10.04;97.00
39265;BME280;42646;51.910;7.724;2024-02-21T12:18:59;100817.66;;;10.03;96.98
39265;BME280;42646;51.910;7.724;2024-02-21T12:21:30;100811.09;;;10.07;96.82
39265;BME280;42646;51.910;7.724;2024-02-21T12:23:59;100807.03;;;10.03;96.96
39265;BME280;42646;51.910;7.724;2024-02-21T12:26:27;100799.88;;;10.03;96.51
39265;BME280;42646;51.910;7.724;2024-02-21T12:28:55;100797.63;;;9.99;96.31
39265;BME280;42646;51.910;7.724;2024-02-21T12:31:22;100789.63;;;9.99;96.24
39265;BME280;42646;51.910;7.724;2024-02-21T12:33:50;100787.56;;;10.02;95.67
39265;BME280;42646;51.910;7.724;2024-02-21T12:36:19;100772.72;;;10.00;95.83
39265;BME280;42646;51.910;7.724;2024-02-21T12:38:48;100765.06;;;10.06;95.62
39265;BME280;42646;51.910;7.724;2024-02-21T12:41:16;100742.09;;;10.05;95.66
39265;BME280;42646;51.910;7.724;2024-02-21T12:43:44;100719.88;;;10.06;95.37
39265;BME280;42646;51.910;7.724;2024-02-21T12:46:11;100729.41;;;10.09;95.31
39265;BME280;42646;51.910;7.724;2024-02-21T12:48:39;100735.41;;;10.11;95.22
39265;BME280;42646;51.910;7.724;2024-02-21T12:51:07;100721.88;;;10.14;94.95
39265;BME280;42646;51.910;7.724;2024-02-21T12:53:35;100726.06;;;10.16;94.89
39265;BME280;42646;51.910;7.724;2024-02-21T12:56:05;100711.53;;;10.21;95.02
39265;BME280;42646;51.910;7.724;2024-02-21T12:58:34;100706.81;;;10.24;94.60
39265;BME280;42646;51.910;7.724;2024-02-21T13:01:02;100697.84;;;10.25;94.38
39265;BME280;42646;51.910;7.724;2024-02-21T13:03:29;100679.97;;;10.27;94.17
39265;BME280;42646;51.910;7.724;2024-02-21T13:05:59;100663.47;;;10.33;93.42
39265;BME280;42646;51.910;7.724;2024-02-21T13:08:27;100659.13;;;10.32;92.27
39265;BME280;42646;51.910;7.724;2024-02-21T13:10:55;100649.44;;;10.31;91.66
39265;BME280;42646;51.910;7.724;2024-02-21T13:13:24;100628.91;;;10.43;91.22
39265;BME280;42646;51.910;7.724;2024-02-21T13:15:52;100622.16;;;10.29;90.92
39265;BME280;42646;51.910;7.724;2024-02-21T13:18:20;100632.22;;;10.26;91.60
39265;BME280;42646;51.910;7.724;2024-02-21T13:20:48;100631.28;;;10.36;91.56
39265;BME280;42646;51.910;7.724;2024-02-21T13:23:15;100650.56;;;10.29;91.21
39265;BME280;42646;51.910;7.724;2024-02-21T13:25:43;100651.41;;;10.29;92.34
39265;BME280;42646;51.910;7.724;2024-02-21T13:28:12;100649.44;;;10.31;92.74
39265;BME280;42646;51.910;7.724;2024-02-21T13:30:43;100641.06;;;10.36;92.56
39265;BME280;42646;51.910;7.724;2024-02-21T13:33:10;100630.44;;;10.36;92.78
39265;BME280;42646;51.910;7.724;2024-02-21T13:35:38;100631.28;;;10.36;92.77
39265;BME280;42646;51.910;7.724;2024-02-21T13:38:06;100617.72;;;10.39;91.77
39265;BME280;42646;51.910;7.724;2024-02-21T13:40:37;100609.59;;;10.41;91.15
39265;BME280;42646;51.910;7.724;2024-02-21T13:43:04;100614.22;;;10.39;91.60
39265;BME280;42646;51.910;7.724;2024-02-21T13:45:36;100614.91;;;10.41;91.97
39265;BME280;42646;51.910;7.724;2024-02-21T13:48:06;100595.31;;;10.42;92.41
39265;BME280;42646;51.910;7.724;2024-02-21T13:50:37;100590.41;;;10.47;92.35
39265;BME280;42646;51.910;7.724;2024-02-21T13:53:09;100580.91;;;10.54;91.32
39265;BME280;42646;51.910;7.724;2024-02-21T13:55:37;100578.69;;;10.50;90.29
39265;BME280;42646;51.910;7.724;2024-02-21T13:58:04;100571.25;;;10.53;90.14
39265;BME280;42646;51.910;7.724;2024-02-21T14:00:32;100569.72;;;10.51;89.66
39265;BME280;42646;51.910;7.724;2024-02-21T14:03:04;100567.88;;;10.51;89.55
39265;BME280;42646;51.910;7.724;2024-02-21T14:05:32;100549.41;;;10.50;89.19
39265;BME280;42646;51.910;7.724;2024-02-21T14:08:00;100539.72;;;10.49;88.67
39265;BME280;42646;51.910;7.724;2024-02-21T14:10:27;100539.16;;;10.55;88.68
39265;BME280;42646;51.910;7.724;2024-02-21T14:12:55;100523.38;;;10.53;88.25
39265;BME280;42646;51.910;7.724;2024-02-21T14:15:23;100511.19;;;10.51;87.54
39265;BME280;42646;51.910;7.724;2024-02-21T14:17:51;100478.16;;;10.53;87.51
39265;BME280;42646;51.910;7.724;2024-02-21T14:20:21;100466.66;;;10.53;86.82
39265;BME280;42646;51.910;7.724;2024-02-21T14:22:48;100457.00;;;10.52;87.51
39265;BME280;42646;51.910;7.724;2024-02-21T14:25:16;100427.75;;;10.52;87.65
39265;BME280;42646;51.910;7.724;2024-02-21T14:27:44;100414.31;;;10.53;87.06
39265;BME280;42646;51.910;7.724;2024-02-21T14:30:12;100415.44;;;10.51;87.00
39265;BME280;42646;51.910;7.724;2024-02-21T14:32:43;100417.66;;;10.55;85.58
39265;BME280;42646;51.910;7.724;2024-02-21T14:35:11;100412.78;;;10.51;85.92
39265;BME280;42646;51.910;7.724;2024-02-21T14:37:40;100414.72;;;10.58;85.34
39265;BME280;42646;51.910;7.724;2024-02-21T14:40:08;100409.97;;;10.52;85.12
39265;BME280;42646;51.910;7.724;2024-02-21T14:42:37;100411.13;;;10.50;85.03
39265;BME280;42646;51.910;7.724;2024-02-21T14:45:06;100412.06;;;10.49;85.19
39265;BME280;42646;51.910;7.724;2024-02-21T14:47:34;100407.06;;;10.46;86.43
39265;BME280;42646;51.910;7.724;2024-02-21T14:50:02;100408.72;;;10.47;87.53
39265;BME280;42646;51.910;7.724;2024-02-21T14:52:31;100396.53;;;10.54;87.35
39265;BME280;42646;51.910;7.724;2024-02-21T14:55:00;100397.78;;;10.59;86.82
39265;BME280;42646;51.910;7.724;2024-02-21T14:57:29;100393.19;;;10.52;86.37
39265;BME280;42646;51.910;7.724;2024-02-21T14:59:57;100391.63;;;10.49;87.21
39265;BME280;42646;51.910;7.724;2024-02-21T15:02:26;100386.03;;;10.52;87.66
39265;BME280;42646;51.910;7.724;2024-02-21T15:04:55;100371.75;;;10.53;88.18
39265;BME280;42646;51.910;7.724;2024-02-21T15:07:23;100361.94;;;10.54;88.17
39265;BME280;42646;51.910;7.724;2024-02-21T15:09:52;100361.66;;;10.57;87.49